sensor_id;sensor_type;location;lat;lon;timestamp;pressure;altitude;pressure_sealevel;temperature;humidity
54588;BME280;40484;50.198;19.576;2023-02-19T00:03:10;101328.41;;;9.10;63.39
54588;BME280;40484;50.198;19.576;2023-02-19T00:08:11;101336.76;;;8.83;63.87
54588;BME280;40484;50.198;19.576;2023-02-19T00:13:12;101340.27;;;8.83;63.72
54588;BME280;40484;50.198;19.576;2023-02-19T00:18:14;101334.27;;;8.83;63.21
54588;BME280;40484;50.198;19.576;2023-02-19T00:23:16;101321.16;;;8.80;64.02
54588;BME280;40484;50.198;19.576;2023-02-19T00:28:17;101321.60;;;8.97;63.71
54588;BME280;40484;50.198;19.576;2023-02-19T00:33:19;101329.41;;;8.78;64.27
54588;BME280;40484;50.198;19.576;2023-02-19T00:38:20;101318.95;;;8.45;64.67
54588;BME280;40484;50.198;19.576;2023-02-19T00:43:22;101310.52;;;8.89;63.34
54588;BME280;40484;50.198;19.576;2023-02-19T00:48:23;101310.48;;;8.87;63.04
54588;BME280;40484;50.198;19.576;2023-02-19T00:53:25;101318.23;;;8.78;62.93
54588;BME280;40484;50.198;19.576;2023-02-19T00:58:26;101325.72;;;9.09;62.07
54588;BME280;40484;50.198;19.576;2023-02-19T01:03:28;101315.41;;;8.57;63.24
54588;BME280;40484;50.198;19.576;2023-02-19T01:08:30;101319.96;;;8.83;62.31
54588;BME280;40484;50.198;19.576;2023-02-19T01:13:59;101308.20;;;8.59;62.81
54588;BME280;40484;50.198;19.576;2023-02-19T01:19:01;101293.98;;;8.94;62.01
54588;BME280;40484;50.198;19.576;2023-02-19T01:24:02;101300.38;;;9.06;61.81
54588;BME280;40484;50.198;19.576;2023-02-19T01:29:04;101302.82;;;9.02;62.40
54588;BME280;40484;50.198;19.576;2023-02-19T01:34:05;101303.20;;;9.01;62.74
54588;BME280;40484;50.198;19.576;2023-02-19T01:39:07;101285.89;;;9.23;62.38
54588;BME280;40484;50.198;19.576;2023-02-19T01:54:19;101277.13;;;8.59;63.74
54588;BME280;40484;50.198;19.576;2023-02-19T01:59:22;101268.29;;;8.66;63.77
54588;BME280;40484;50.198;19.576;2023-02-19T02:04:23;101262.09;;;8.65;63.95
54588;BME280;40484;50.198;19.576;2023-02-19T02:09:26;101275.62;;;8.32;64.82
54588;BME280;40484;50.198;19.576;2023-02-19T02:15:06;101260.24;;;8.53;64.45
54588;BME280;40484;50.198;19.576;2023-02-19T02:21:00;101259.40;;;8.96;63.35
54588;BME280;40484;50.198;19.576;2023-02-19T02:26:10;101268.69;;;8.92;63.15
54588;BME280;40484;50.198;19.576;2023-02-19T02:31:06;101258.28;;;8.46;64.28
54588;BME280;40484;50.198;19.576;2023-02-19T02:36:15;101249.22;;;8.49;64.14
54588;BME280;40484;50.198;19.576;2023-02-19T02:41:14;101230.80;;;8.80;63.38
54588;BME280;40484;50.198;19.576;2023-02-19T02:46:21;101233.70;;;8.64;63.99
54588;BME280;40484;50.198;19.576;2023-02-19T02:51:31;101249.25;;;8.96;63.07
54588;BME280;40484;50.198;19.576;2023-02-19T02:56:33;101248.62;;;8.97;63.47
54588;BME280;40484;50.198;19.576;2023-02-19T03:01:40;101228.97;;;9.00;63.51
54588;BME280;40484;50.198;19.576;2023-02-19T03:07:38;101229.71;;;9.10;63.53
54588;BME280;40484;50.198;19.576;2023-02-19T03:12:40;101232.52;;;9.18;63.03
54588;BME280;40484;50.198;19.576;2023-02-19T03:18:22;101234.67;;;9.09;63.44
54588;BME280;40484;50.198;19.576;2023-02-19T03:24:02;101236.30;;;9.05;63.67
54588;BME280;40484;50.198;19.576;2023-02-19T03:30:09;101232.24;;;8.96;64.03
54588;BME280;40484;50.198;19.576;2023-02-19T03:35:18;101231.96;;;9.24;63.12
54588;BME280;40484;50.198;19.576;2023-02-19T03:40:20;101231.55;;;9.25;63.08
54588;BME280;40484;50.198;19.576;2023-02-19T03:45:35;101227.86;;;9.28;62.94
54588;BME280;40484;50.198;19.576;2023-02-19T03:50:49;101225.31;;;9.06;63.39
54588;BME280;40484;50.198;19.576;2023-02-19T03:55:56;101226.25;;;9.14;63.17
54588;BME280;40484;50.198;19.576;2023-02-19T04:01:04;101227.08;;;9.15;63.27
54588;BME280;40484;50.198;19.576;2023-02-19T04:06:08;101217.01;;;9.22;63.07
54588;BME280;40484;50.198;19.576;2023-02-19T04:11:09;101211.26;;;9.10;63.44
54588;BME280;40484;50.198;19.576;2023-02-19T04:16:19;101210.70;;;8.81;63.68
54588;BME280;40484;50.198;19.576;2023-02-19T04:21:21;101186.18;;;8.95;63.77
54588;BME280;40484;50.198;19.576;2023-02-19T04:26:50;101179.70;;;9.24;62.83
54588;BME280;40484;50.198;19.576;2023-02-19T04:31:52;101183.30;;;9.12;63.21
54588;BME280;40484;50.198;19.576;2023-02-19T04:36:54;101187.33;;;9.02;63.21
54588;BME280;40484;50.198;19.576;2023-02-19T04:41:55;101189.09;;;8.95;63.51
54588;BME280;40484;50.198;19.576;2023-02-19T04:46:57;101180.02;;;8.81;63.75
54588;BME280;40484;50.198;19.576;2023-02-19T04:51:58;101173.88;;;8.86;63.57
54588;BME280;40484;50.198;19.576;2023-02-19T04:57:00;101181.68;;;8.81;63.71
54588;BME280;40484;50.198;19.576;2023-02-19T05:02:01;101177.91;;;8.78;63.76
54588;BME280;40484;50.198;19.576;2023-02-19T05:07:03;101169.74;;;8.71;63.86
54588;BME280;40484;50.198;19.576;2023-02-19T05:12:05;101155.56;;;8.82;63.62
54588;BME280;40484;50.198;19.576;2023-02-19T05:17:06;101131.69;;;8.77;63.81
54588;BME280;40484;50.198;19.576;2023-02-19T05:22:08;101109.65;;;9.10;62.81
54588;BME280;40484;50.198;19.576;2023-02-19T05:27:09;101115.25;;;9.07;62.79
54588;BME280;40484;50.198;19.576;2023-02-19T05:32:11;101109.47;;;9.35;62.15
54588;BME280;40484;50.198;19.576;2023-02-19T05:37:12;101114.54;;;9.42;61.99
54588;BME280;40484;50.198;19.576;2023-02-19T05:42:14;101111.13;;;9.32;62.37
54588;BME280;40484;50.198;19.576;2023-02-19T05:47:15;101111.84;;;9.20;62.84
54588;BME280;40484;50.198;19.576;2023-02-19T05:52:17;101108.97;;;9.26;62.86
54588;BME280;40484;50.198;19.576;2023-02-19T05:57:18;101113.30;;;9.20;63.16
54588;BME280;40484;50.198;19.576;2023-02-19T06:02:21;101110.03;;;8.86;64.44
54588;BME280;40484;50.198;19.576;2023-02-19T06:07:22;101104.60;;;9.02;63.85
54588;BME280;40484;50.198;19.576;2023-02-19T06:12:24;101111.66;;;9.25;63.37
54588;BME280;40484;50.198;19.576;2023-02-19T06:17:50;101100.62;;;9.19;63.69
54588;BME280;40484;50.198;19.576;2023-02-19T06:22:52;101098.04;;;9.31;63.39
54588;BME280;40484;50.198;19.576;2023-02-19T06:27:53;101109.54;;;9.18;63.85
54588;BME280;40484;50.198;19.576;2023-02-19T06:32:54;101122.03;;;9.04;64.11
54588;BME280;40484;50.198;19.576;2023-02-19T06:37:56;101120.05;;;8.93;64.34
54588;BME280;40484;50.198;19.576;2023-02-19T06:42:57;101122.37;;;8.78;64.78
54588;BME280;40484;50.198;19.576;2023-02-19T06:48:00;101118.36;;;8.90;64.37
54588;BME280;40484;50.198;19.576;2023-02-19T06:53:01;101116.08;;;9.08;63.81
54588;BME280;40484;50.198;19.576;2023-02-19T06:58:03;101112.27;;;9.21;63.35
54588;BME280;40484;50.198;19.576;2023-02-19T07:03:04;101107.21;;;9.16;63.78
54588;BME280;40484;50.198;19.576;2023-02-19T07:08:06;101104.34;;;9.40;63.24
54588;BME280;40484;50.198;19.576;2023-02-19T07:13:07;101097.17;;;9.49;62.81
54588;BME280;40484;50.198;19.576;2023-02-19T07:18:09;101108.52;;;9.22;63.39
54588;BME280;40484;50.198;19.576;2023-02-19T07:23:10;101087.62;;;9.48;62.81
54588;BME280;40484;50.198;19.576;2023-02-19T07:28:12;101092.82;;;9.28;63.63
54588;BME280;40484;50.198;19.576;2023-02-19T07:33:13;101100.17;;;9.35;63.78
54588;BME280;40484;50.198;19.576;2023-02-19T07:38:15;101091.53;;;9.46;63.43
54588;BME280;40484;50.198;19.576;2023-02-19T07:43:18;101086.68;;;9.35;64.05
54588;BME280;40484;50.198;19.576;2023-02-19T07:48:20;101077.04;;;9.48;63.79
54588;BME280;40484;50.198;19.576;2023-02-19T07:53:22;101078.83;;;9.39;64.00
54588;BME280;40484;50.198;19.576;2023-02-19T07:58:24;101077.65;;;9.25;64.67
54588;BME280;40484;50.198;19.576;2023-02-19T08:03:26;101066.56;;;9.38;64.42
54588;BME280;40484;50.198;19.576;2023-02-19T08:08:51;101071.77;;;9.64;63.79
54588;BME280;40484;50.198;19.576;2023-02-19T08:13:53;101068.59;;;9.60;63.98
54588;BME280;40484;50.198;19.576;2023-02-19T08:18:54;101069.38;;;9.51;64.30
54588;BME280;40484;50.198;19.576;2023-02-19T08:23:56;101062.91;;;9.45;64.43
54588;BME280;40484;50.198;19.576;2023-02-19T08:28:57;101057.63;;;9.33;64.59
54588;BME280;40484;50.198;19.576;2023-02-19T08:33:59;101075.31;;;9.69;63.59
54588;BME280;40484;50.198;19.576;2023-02-19T08:39:00;101082.83;;;9.74;63.65
54588;BME280;40484;50.198;19.576;2023-02-19T08:44:02;101072.38;;;9.97;63.19
54588;BME280;40484;50.198;19.576;2023-02-19T08:49:03;101077.62;;;10.01;63.30
54588;BME280;40484;50.198;19.576;2023-02-19T08:54:05;101088.63;;;10.01;63.23
54588;BME280;40484;50.198;19.576;2023-02-19T08:59:06;101085.89;;;9.95;62.46
54588;BME280;40484;50.198;19.576;2023-02-19T09:04:10;101085.18;;;9.56;62.29
54588;BME280;40484;50.198;19.576;2023-02-19T09:09:11;101092.97;;;9.22;62.84
54588;BME280;40484;50.198;19.576;2023-02-19T09:14:12;101098.13;;;9.17;63.13
54588;BME280;40484;50.198;19.576;2023-02-19T09:19:14;101089.00;;;9.17;63.43
54588;BME280;40484;50.198;19.576;2023-02-19T09:24:15;101093.32;;;9.38;62.74
54588;BME280;40484;50.198;19.576;2023-02-19T09:29:17;101077.35;;;9.38;62.87
54588;BME280;40484;50.198;19.576;2023-02-19T09:34:19;101086.38;;;9.49;62.87
54588;BME280;40484;50.198;19.576;2023-02-19T09:39:20;101089.10;;;9.52;62.86
54588;BME280;40484;50.198;19.576;2023-02-19T09:44:24;101094.78;;;9.36;63.43
54588;BME280;40484;50.198;19.576;2023-02-19T09:49:32;101088.02;;;9.45;63.17
54588;BME280;40484;50.198;19.576;2023-02-19T09:55:15;101091.80;;;9.51;63.05
54588;BME280;40484;50.198;19.576;2023-02-19T10:00:21;101122.89;;;9.28;62.41
54588;BME280;40484;50.198;19.576;2023-02-19T10:05:24;101104.20;;;9.24;62.46
54588;BME280;40484;50.198;19.576;2023-02-19T10:10:33;101098.90;;;9.35;61.90
54588;BME280;40484;50.198;19.576;2023-02-19T10:15:40;101126.52;;;8.79;62.08
54588;BME280;40484;50.198;19.576;2023-02-19T10:22:46;101129.42;;;8.97;61.97
54588;BME280;40484;50.198;19.576;2023-02-19T10:27:48;101144.12;;;8.78;62.12
54588;BME280;40484;50.198;19.576;2023-02-19T10:33:01;101143.93;;;8.96;61.35
54588;BME280;40484;50.198;19.576;2023-02-19T10:38:00;101165.31;;;8.99;61.15
54588;BME280;40484;50.198;19.576;2023-02-19T10:43:03;101182.93;;;8.66;60.33
54588;BME280;40484;50.198;19.576;2023-02-19T10:48:06;101182.02;;;8.59;59.03
54588;BME280;40484;50.198;19.576;2023-02-19T10:53:13;101198.58;;;8.31;59.27
54588;BME280;40484;50.198;19.576;2023-02-19T10:58:23;101200.74;;;7.85;60.65
54588;BME280;40484;50.198;19.576;2023-02-19T11:03:26;101205.70;;;7.84;60.79
54588;BME280;40484;50.198;19.576;2023-02-19T11:08:28;101198.87;;;7.96;60.38
54588;BME280;40484;50.198;19.576;2023-02-19T11:13:32;101197.84;;;7.85;61.18
54588;BME280;40484;50.198;19.576;2023-02-19T11:18:33;101209.64;;;8.11;60.50
54588;BME280;40484;50.198;19.576;2023-02-19T11:23:45;101215.70;;;7.89;60.16
54588;BME280;40484;50.198;19.576;2023-02-19T11:28:54;101239.90;;;7.75;60.02
54588;BME280;40484;50.198;19.576;2023-02-19T11:34:25;101239.57;;;7.57;59.56
54588;BME280;40484;50.198;19.576;2023-02-19T11:39:27;101261.25;;;7.23;59.65
54588;BME280;40484;50.198;19.576;2023-02-19T11:44:38;101269.01;;;7.09;60.26
54588;BME280;40484;50.198;19.576;2023-02-19T11:49:43;101273.90;;;6.86;60.03
54588;BME280;40484;50.198;19.576;2023-02-19T12:00:21;101275.66;;;7.00;60.19
54588;BME280;40484;50.198;19.576;2023-02-19T12:05:33;101275.95;;;6.75;60.66
54588;BME280;40484;50.198;19.576;2023-02-19T12:22:10;101311.42;;;6.82;60.49
54588;BME280;40484;50.198;19.576;2023-02-19T12:38:19;101337.20;;;6.89;60.42
54588;BME280;40484;50.198;19.576;2023-02-19T12:44:08;101333.75;;;7.11;60.20
54588;BME280;40484;50.198;19.576;2023-02-19T12:49:25;101341.73;;;6.80;60.93
54588;BME280;40484;50.198;19.576;2023-02-19T12:54:30;101335.80;;;6.91;60.43
54588;BME280;40484;50.198;19.576;2023-02-19T12:59:37;101348.41;;;7.00;60.50
54588;BME280;40484;50.198;19.576;2023-02-19T13:04:43;101342.62;;;6.65;61.11
54588;BME280;40484;50.198;19.576;2023-02-19T13:09:52;101358.31;;;6.74;60.90
54588;BME280;40484;50.198;19.576;2023-02-19T13:14:58;101368.34;;;6.60;60.69
54588;BME280;40484;50.198;19.576;2023-02-19T13:20:03;101372.40;;;6.57;60.52
54588;BME280;40484;50.198;19.576;2023-02-19T13:25:04;101381.59;;;6.71;59.95
54588;BME280;40484;50.198;19.576;2023-02-19T13:30:14;101388.02;;;6.47;60.55
54588;BME280;40484;50.198;19.576;2023-02-19T13:46:37;101420.80;;;6.61;59.71
54588;BME280;40484;50.198;19.576;2023-02-19T13:51:45;101423.94;;;6.54;59.34
54588;BME280;40484;50.198;19.576;2023-02-19T13:56:42;101433.30;;;6.49;59.20
54588;BME280;40484;50.198;19.576;2023-02-19T14:17:42;101451.11;;;6.43;58.77
54588;BME280;40484;50.198;19.576;2023-02-19T14:22:50;101461.09;;;6.30;59.12
54588;BME280;40484;50.198;19.576;2023-02-19T14:27:54;101468.91;;;6.13;59.52
54588;BME280;40484;50.198;19.576;2023-02-19T14:32:56;101480.75;;;6.10;59.29
54588;BME280;40484;50.198;19.576;2023-02-19T14:37:58;101488.30;;;5.99;59.64
54588;BME280;40484;50.198;19.576;2023-02-19T14:43:00;101502.57;;;6.07;59.41
54588;BME280;40484;50.198;19.576;2023-02-19T14:48:02;101511.79;;;5.79;59.16
54588;BME280;40484;50.198;19.576;2023-02-19T14:53:06;101519.24;;;5.86;59.20
54588;BME280;40484;50.198;19.576;2023-02-19T14:58:17;101521.32;;;5.99;58.71
54588;BME280;40484;50.198;19.576;2023-02-19T15:03:28;101525.46;;;5.80;59.26
54588;BME280;40484;50.198;19.576;2023-02-19T15:08:31;101535.13;;;6.06;58.35
54588;BME280;40484;50.198;19.576;2023-02-19T15:13:30;101548.03;;;6.17;57.82
54588;BME280;40484;50.198;19.576;2023-02-19T15:18:32;101549.75;;;6.26;57.64
54588;BME280;40484;50.198;19.576;2023-02-19T15:23:35;101560.51;;;6.27;57.62
54588;BME280;40484;50.198;19.576;2023-02-19T15:28:37;101564.61;;;6.12;57.43
54588;BME280;40484;50.198;19.576;2023-02-19T15:33:39;101571.64;;;6.12;56.98
54588;BME280;40484;50.198;19.576;2023-02-19T15:39:05;101582.05;;;6.01;56.67
54588;BME280;40484;50.198;19.576;2023-02-19T15:44:14;101592.30;;;5.80;55.25
54588;BME280;40484;50.198;19.576;2023-02-19T15:49:16;101590.36;;;5.84;54.73
54588;BME280;40484;50.198;19.576;2023-02-19T15:54:25;101597.37;;;5.77;53.97
54588;BME280;40484;50.198;19.576;2023-02-19T15:59:37;101617.57;;;5.96;53.83
54588;BME280;40484;50.198;19.576;2023-02-19T16:04:39;101634.17;;;5.99;53.30
54588;BME280;40484;50.198;19.576;2023-02-19T16:09:41;101659.80;;;5.82;52.57
54588;BME280;40484;50.198;19.576;2023-02-19T16:14:42;101664.75;;;5.51;52.48
54588;BME280;40484;50.198;19.576;2023-02-19T16:19:58;101685.25;;;5.78;52.12
54588;BME280;40484;50.198;19.576;2023-02-19T16:25:03;101700.48;;;5.46;52.69
54588;BME280;40484;50.198;19.576;2023-02-19T16:35:36;101709.87;;;5.74;53.02
54588;BME280;40484;50.198;19.576;2023-02-19T16:41:10;101713.79;;;5.86;53.22
54588;BME280;40484;50.198;19.576;2023-02-19T16:46:09;101723.34;;;5.45;53.41
54588;BME280;40484;50.198;19.576;2023-02-19T16:51:22;101743.54;;;5.57;53.62
54588;BME280;40484;50.198;19.576;2023-02-19T16:56:21;101738.75;;;5.55;53.74
54588;BME280;40484;50.198;19.576;2023-02-19T17:01:23;101756.67;;;5.55;53.99
54588;BME280;40484;50.198;19.576;2023-02-19T17:06:25;101781.84;;;5.44;53.83
54588;BME280;40484;50.198;19.576;2023-02-19T17:11:27;101782.40;;;5.60;53.78
54588;BME280;40484;50.198;19.576;2023-02-19T17:16:30;101793.20;;;5.67;53.82
54588;BME280;40484;50.198;19.576;2023-02-19T17:21:34;101799.89;;;5.47;53.84
54588;BME280;40484;50.198;19.576;2023-02-19T17:26:35;101812.29;;;5.31;53.67
54588;BME280;40484;50.198;19.576;2023-02-19T17:31:37;101805.46;;;5.41;53.60
54588;BME280;40484;50.198;19.576;2023-02-19T17:36:38;101810.64;;;5.54;53.27
54588;BME280;40484;50.198;19.576;2023-02-19T17:41:42;101811.86;;;5.14;53.99
54588;BME280;40484;50.198;19.576;2023-02-19T17:46:45;101816.89;;;5.44;53.58
54588;BME280;40484;50.198;19.576;2023-02-19T17:51:48;101831.95;;;5.27;54.14
54588;BME280;40484;50.198;19.576;2023-02-19T17:56:49;101847.21;;;5.27;54.24
54588;BME280;40484;50.198;19.576;2023-02-19T18:01:51;101860.09;;;5.24;54.21
54588;BME280;40484;50.198;19.576;2023-02-19T18:06:52;101857.30;;;5.00;54.67
54588;BME280;40484;50.198;19.576;2023-02-19T18:12:18;101874.41;;;5.39;53.93
54588;BME280;40484;50.198;19.576;2023-02-19T18:17:20;101887.98;;;5.42;53.66
54588;BME280;40484;50.198;19.576;2023-02-19T18:22:21;101892.91;;;5.15;54.16
54588;BME280;40484;50.198;19.576;2023-02-19T18:27:23;101902.95;;;4.98;54.45
54588;BME280;40484;50.198;19.576;2023-02-19T18:32:24;101922.39;;;5.20;53.93
54588;BME280;40484;50.198;19.576;2023-02-19T18:37:27;101928.91;;;4.88;54.42
54588;BME280;40484;50.198;19.576;2023-02-19T18:42:31;101933.98;;;4.91;54.18
54588;BME280;40484;50.198;19.576;2023-02-19T18:47:32;101925.55;;;4.96;54.23
54588;BME280;40484;50.198;19.576;2023-02-19T18:52:34;101918.09;;;5.06;54.00
54588;BME280;40484;50.198;19.576;2023-02-19T18:57:35;101921.98;;;4.95;54.13
54588;BME280;40484;50.198;19.576;2023-02-19T19:02:36;101925.39;;;4.67;54.73
54588;BME280;40484;50.198;19.576;2023-02-19T19:07:38;101945.71;;;4.75;54.43
54588;BME280;40484;50.198;19.576;2023-02-19T19:12:40;101937.56;;;4.77;54.41
54588;BME280;40484;50.198;19.576;2023-02-19T19:17:41;101948.95;;;4.69;54.58
54588;BME280;40484;50.198;19.576;2023-02-19T19:22:43;101955.84;;;4.81;54.39
54588;BME280;40484;50.198;19.576;2023-02-19T19:27:44;101968.41;;;4.92;54.11
54588;BME280;40484;50.198;19.576;2023-02-19T19:32:50;101966.13;;;4.95;54.09
54588;BME280;40484;50.198;19.576;2023-02-19T19:37:52;101977.44;;;4.86;54.32
54588;BME280;40484;50.198;19.576;2023-02-19T19:42:53;101967.70;;;4.99;54.24
54588;BME280;40484;50.198;19.576;2023-02-19T19:47:54;101984.33;;;4.98;53.94
54588;BME280;40484;50.198;19.576;2023-02-19T19:52:56;101994.91;;;4.70;54.57
54588;BME280;40484;50.198;19.576;2023-02-19T19:58:22;102008.69;;;4.79;54.16
54588;BME280;40484;50.198;19.576;2023-02-19T20:03:24;102006.66;;;4.61;54.57
54588;BME280;40484;50.198;19.576;2023-02-19T20:08:27;102022.20;;;4.62;54.42
54588;BME280;40484;50.198;19.576;2023-02-19T20:13:28;102013.66;;;4.74;53.89
54588;BME280;40484;50.198;19.576;2023-02-19T20:18:33;102012.54;;;4.73;53.33
54588;BME280;40484;50.198;19.576;2023-02-19T20:23:34;102012.23;;;4.55;53.43
54588;BME280;40484;50.198;19.576;2023-02-19T20:28:36;102010.19;;;4.56;53.37
54588;BME280;40484;50.198;19.576;2023-02-19T20:33:37;102011.44;;;4.57;53.34
54588;BME280;40484;50.198;19.576;2023-02-19T20:38:38;102012.20;;;4.60;53.05
54588;BME280;40484;50.198;19.576;2023-02-19T20:43:42;102024.31;;;4.59;53.11
54588;BME280;40484;50.198;19.576;2023-02-19T20:48:43;102036.51;;;4.65;52.92
54588;BME280;40484;50.198;19.576;2023-02-19T20:53:45;102046.42;;;4.66;52.72
54588;BME280;40484;50.198;19.576;2023-02-19T20:58:47;102045.75;;;4.79;52.40
54588;BME280;40484;50.198;19.576;2023-02-19T21:03:48;102057.08;;;4.50;52.99
54588;BME280;40484;50.198;19.576;2023-02-19T21:08:50;102066.12;;;4.59;52.87
54588;BME280;40484;50.198;19.576;2023-02-19T21:13:51;102070.83;;;4.45;53.14
54588;BME280;40484;50.198;19.576;2023-02-19T21:18:53;102073.50;;;4.31;53.42
54588;BME280;40484;50.198;19.576;2023-02-19T21:23:55;102074.79;;;4.14;53.65
54588;BME280;40484;50.198;19.576;2023-02-19T21:28:57;102080.38;;;4.23;53.70
54588;BME280;40484;50.198;19.576;2023-02-19T21:33:59;102093.21;;;4.39;53.42
54588;BME280;40484;50.198;19.576;2023-02-19T21:39:00;102108.34;;;4.23;53.77
54588;BME280;40484;50.198;19.576;2023-02-19T21:44:26;102112.67;;;4.19;54.03
54588;BME280;40484;50.198;19.576;2023-02-19T21:49:28;102111.57;;;4.21;54.02
54588;BME280;40484;50.198;19.576;2023-02-19T21:54:29;102110.09;;;4.39;53.59
54588;BME280;40484;50.198;19.576;2023-02-19T21:59:31;102113.99;;;4.30;53.81
54588;BME280;40484;50.198;19.576;2023-02-19T22:04:32;102122.39;;;4.37;53.68
54588;BME280;40484;50.198;19.576;2023-02-19T22:09:34;102118.52;;;4.07;54.23
54588;BME280;40484;50.198;19.576;2023-02-19T22:14:35;102125.55;;;4.25;53.92
54588;BME280;40484;50.198;19.576;2023-02-19T22:19:37;102124.38;;;3.87;54.94
54588;BME280;40484;50.198;19.576;2023-02-19T22:24:39;102128.26;;;3.96;54.74
54588;BME280;40484;50.198;19.576;2023-02-19T22:29:40;102130.90;;;3.82;55.25
54588;BME280;40484;50.198;19.576;2023-02-19T22:34:42;102136.84;;;4.03;54.70
54588;BME280;40484;50.198;19.576;2023-02-19T22:39:43;102144.03;;;4.03;54.78
54588;BME280;40484;50.198;19.576;2023-02-19T22:44:45;102154.23;;;3.58;56.13
54588;BME280;40484;50.198;19.576;2023-02-19T22:49:46;102156.96;;;3.77;55.57
54588;BME280;40484;50.198;19.576;2023-02-19T22:54:50;102155.45;;;3.79;55.63
54588;BME280;40484;50.198;19.576;2023-02-19T22:59:50;102159.25;;;3.77;55.89
54588;BME280;40484;50.198;19.576;2023-02-19T23:04:52;102161.29;;;3.90;55.50
54588;BME280;40484;50.198;19.576;2023-02-19T23:09:53;102168.33;;;3.95;55.50
54588;BME280;40484;50.198;19.576;2023-02-19T23:14:55;102168.82;;;3.84;55.68
54588;BME280;40484;50.198;19.576;2023-02-19T23:19:56;102187.72;;;3.96;55.44
54588;BME280;40484;50.198;19.576;2023-02-19T23:24:58;102193.57;;;3.85;55.74
54588;BME280;40484;50.198;19.576;2023-02-19T23:29:59;102193.88;;;3.66;56.14
54588;BME280;40484;50.198;19.576;2023-02-19T23:35:26;102200.78;;;3.98;55.55
54588;BME280;40484;50.198;19.576;2023-02-19T23:40:28;102201.39;;;4.06;55.22
54588;BME280;40484;50.198;19.576;2023-02-19T23:45:29;102189.49;;;3.86;55.73
54588;BME280;40484;50.198;19.576;2023-02-19T23:50:31;102198.23;;;3.88;55.45
54588;BME280;40484;50.198;19.576;2023-02-19T23:55:32;102204.14;;;3.87;55.39
